PWSweather.com
Personal Weather Stations
Station Observations
PALMY
Palmerston NorthNZ 4410

Palmerston NorthNZ 4410

Lat: -40.349104, Lon: 175.615094

Elevation: 75.4

Station Type: WeatherDuino Pro2

http://palmyweather.co.nz

High Low Average
Temperature 58.8°F14.9°F 48.5°F9.2°F 52.6°F11.4°F
Dew Point 44.8°F7.1°F -8.4°F-22.4°F 17.6°F-8.0°F
Winds 10.3 mph -16.6 mph - Calm Calm 5.1 mph 8.2 mph
Wind Gusts 27.8 mph44.7 mph -- 13.1 mph21.1 mph
Humidity 63% 8% 29%
Pressure 29.61 in1002.70 in 29.52 in999.70 in -
Precipitation 6.27 in159.30 in - -
Hour Temp Dew Point Humidity Winds Wind Gusts Pressure Precip Precip Rate Daily Precip Total
12:00 AM 53.0°F11.7°C -0.2°F-17.9°C 11% 2.2 mph W3.5 kmh W 6.3 mph10.1 kmh 29.57 in1001.4 mb 0.02 in0.5 mm 0.00 in0.0 mm 0.02 in0.5 mm
12:05 AM 52.8°F11.6°C -0.3°F-17.9°C 11% 2.2 mph WNW3.5 kmh WNW 6.3 mph10.1 kmh 29.57 in1001.4 mb 0.02 in0.5 mm 0.00 in0.0 mm 0.02 in0.5 mm
12:10 AM 52.8°F11.6°C -0.3°F-17.9°C 11% 1.8 mph WNW2.9 kmh WNW 5.8 mph9.3 kmh 29.57 in1001.4 mb 0.02 in0.5 mm 0.00 in0.0 mm 0.02 in0.5 mm
12:15 AM 52.8°F11.6°C -0.3°F-17.9°C 11% 0.4 mph NW0.6 kmh NW 4.0 mph6.4 kmh 29.57 in1001.4 mb 0.02 in0.5 mm 0.00 in0.0 mm 0.02 in0.5 mm
12:20 AM 52.8°F11.6°C -0.3°F-17.9°C 11% Calm Calm -- 29.57 in1001.4 mb 0.02 in0.5 mm 0.00 in0.0 mm 0.02 in0.5 mm
12:25 AM 52.8°F11.6°C -0.3°F-17.9°C 11% Calm Calm -- 29.56 in1001.0 mb 0.00 in0.0 mm 0.00 in0.0 mm 0.02 in0.5 mm
12:30 AM 52.8°F11.6°C -0.3°F-17.9°C 11% 0.4 mph WSW0.6 kmh WSW 4.5 mph7.2 kmh 29.56 in1001.0 mb 0.00 in0.0 mm 0.00 in0.0 mm 0.02 in0.5 mm
12:35 AM 52.8°F11.6°C -0.3°F-17.9°C 11% 0.9 mph W1.4 kmh W 4.5 mph7.2 kmh 29.55 in1000.7 mb 0.00 in0.0 mm 0.00 in0.0 mm 0.02 in0.5 mm
12:40 AM 52.8°F11.6°C -0.3°F-17.9°C 11% 1.8 mph W2.9 kmh W 6.3 mph10.1 kmh 29.56 in1001.0 mb 0.00 in0.0 mm 0.00 in0.0 mm 0.02 in0.5 mm
12:45 AM 52.8°F11.6°C -0.3°F-17.9°C 11% 3.6 mph WSW5.8 kmh WSW 11.2 mph18.0 kmh 29.56 in1001.0 mb 0.00 in0.0 mm 0.00 in0.0 mm 0.02 in0.5 mm
12:50 AM 52.8°F11.6°C -0.3°F-17.9°C 11% 5.4 mph WSW8.7 kmh WSW 13.9 mph22.4 kmh 29.57 in1001.4 mb 0.01 in0.3 mm 0.12 in3.0 mm 0.01 in0.3 mm
12:55 AM 52.7°F11.5°C -2.4°F-19.1°C 10% 4.9 mph WSW7.9 kmh WSW 13.9 mph22.4 kmh 29.56 in1001.0 mb 0.02 in0.5 mm 0.12 in3.0 mm 0.02 in0.5 mm
01:00 AM 52.5°F11.4°C -2.6°F-19.2°C 10% 3.6 mph W5.8 kmh W 13.0 mph20.9 kmh 29.56 in1001.0 mb 0.06 in1.5 mm 0.04 in1.0 mm 0.06 in1.5 mm
01:05 AM 52.3°F11.3°C -2.8°F-19.3°C 10% 4.0 mph W6.4 kmh W 13.0 mph20.9 kmh 29.56 in1001.0 mb 0.07 in1.8 mm 0.12 in3.0 mm 0.07 in1.8 mm
01:10 AM 52.3°F11.3°C -5.0°F-20.6°C 9% 3.1 mph W5.0 kmh W 15.2 mph24.5 kmh 29.57 in1001.4 mb 0.08 in2.0 mm 0.12 in3.0 mm 0.08 in2.0 mm
01:15 AM 52.3°F11.3°C -5.0°F-20.6°C 9% 3.6 mph WNW5.8 kmh WNW 15.2 mph24.5 kmh 29.56 in1001.0 mb 0.09 in2.3 mm 0.12 in3.0 mm 0.09 in2.3 mm
01:20 AM 52.1°F11.2°C -5.1°F-20.6°C 9% 4.9 mph NW7.9 kmh NW 17.9 mph28.8 kmh 29.56 in1001.0 mb 0.10 in2.5 mm 0.12 in3.0 mm 0.10 in2.5 mm
01:25 AM 51.9°F11.1°C -5.3°F-20.7°C 9% 4.9 mph NW7.9 kmh NW 17.9 mph28.8 kmh 29.56 in1001.0 mb 0.11 in2.8 mm 0.12 in3.0 mm 0.11 in2.8 mm
01:30 AM 51.9°F11.1°C -5.3°F-20.7°C 9% 4.9 mph NW7.9 kmh NW 9.9 mph15.9 kmh 29.56 in1001.0 mb 0.12 in3.0 mm 0.12 in3.0 mm 0.12 in3.0 mm
01:35 AM 51.9°F11.1°C -5.3°F-20.7°C 9% 4.5 mph NW7.2 kmh NW 9.9 mph15.9 kmh 29.57 in1001.4 mb 0.13 in3.3 mm 0.12 in3.0 mm 0.13 in3.3 mm
01:40 AM 51.8°F11.0°C -5.3°F-20.7°C 9% 4.9 mph WNW7.9 kmh WNW 12.1 mph19.5 kmh 29.57 in1001.4 mb 0.19 in4.8 mm 0.72 in18.3 mm 0.19 in4.8 mm
01:45 AM 51.6°F10.9°C -5.5°F-20.8°C 9% 5.8 mph WNW9.3 kmh WNW 13.4 mph21.6 kmh 29.58 in1001.7 mb 0.18 in4.6 mm 0.00 in0.0 mm 0.19 in4.8 mm
01:50 AM 51.6°F10.9°C -5.5°F-20.8°C 9% 6.7 mph WNW10.8 kmh WNW 17.9 mph28.8 kmh 29.58 in1001.7 mb 0.20 in5.1 mm 0.24 in6.1 mm 0.20 in5.1 mm
01:55 AM 51.6°F10.9°C -5.5°F-20.8°C 9% 6.3 mph WNW10.1 kmh WNW 17.9 mph28.8 kmh 29.57 in1001.4 mb 0.20 in5.1 mm 0.00 in0.0 mm 0.21 in5.3 mm
02:00 AM 51.4°F10.8°C -5.6°F-20.9°C 9% 5.8 mph W9.3 kmh W 14.8 mph23.8 kmh 29.58 in1001.7 mb 0.20 in5.1 mm 0.00 in0.0 mm 0.25 in6.4 mm
02:05 AM 51.4°F10.8°C -5.6°F-20.9°C 9% 5.8 mph W9.3 kmh W 14.8 mph23.8 kmh 29.57 in1001.4 mb 0.19 in4.8 mm 0.00 in0.0 mm 0.26 in6.6 mm
02:10 AM 51.4°F10.8°C -5.6°F-20.9°C 9% 5.4 mph WNW8.7 kmh WNW 12.1 mph19.5 kmh 29.57 in1001.4 mb 0.18 in4.6 mm 0.00 in0.0 mm 0.26 in6.6 mm
02:15 AM 51.2°F10.7°C -5.8°F-21.0°C 9% 5.4 mph NW8.7 kmh NW 12.1 mph19.5 kmh 29.56 in1001.0 mb 0.17 in4.3 mm 0.00 in0.0 mm 0.26 in6.6 mm
02:20 AM 51.0°F10.6°C -3.8°F-19.9°C 10% 4.0 mph WNW6.4 kmh WNW 11.6 mph18.7 kmh 29.56 in1001.0 mb 0.16 in4.1 mm 0.00 in0.0 mm 0.26 in6.6 mm
02:25 AM 50.9°F10.5°C -3.8°F-19.9°C 10% 3.6 mph NW5.8 kmh NW 8.5 mph13.7 kmh 29.56 in1001.0 mb 0.15 in3.8 mm 0.00 in0.0 mm 0.26 in6.6 mm
02:30 AM 50.7°F10.4°C -4.0°F-20.0°C 10% 4.0 mph NW6.4 kmh NW 8.5 mph13.7 kmh 29.55 in1000.7 mb 0.14 in3.6 mm 0.00 in0.0 mm 0.26 in6.6 mm
02:35 AM 50.7°F10.4°C -4.0°F-20.0°C 10% 3.6 mph NW5.8 kmh NW 7.2 mph11.6 kmh 29.56 in1001.0 mb 0.13 in3.3 mm 0.00 in0.0 mm 0.26 in6.6 mm
02:40 AM 50.7°F10.4°C -4.0°F-20.0°C 10% 3.1 mph NW5.0 kmh NW 7.2 mph11.6 kmh 29.55 in1000.7 mb 0.07 in1.8 mm 0.00 in0.0 mm 0.26 in6.6 mm
02:45 AM 50.7°F10.4°C -4.0°F-20.0°C 10% 3.1 mph NW5.0 kmh NW 5.8 mph9.3 kmh 29.55 in1000.7 mb 0.07 in1.8 mm 0.00 in0.0 mm 0.26 in6.6 mm
02:50 AM 50.7°F10.4°C -4.0°F-20.0°C 10% 2.2 mph WNW3.5 kmh WNW 4.9 mph7.9 kmh 29.54 in1000.3 mb 0.06 in1.5 mm 0.00 in0.0 mm 0.26 in6.6 mm
02:55 AM 50.7°F10.4°C -4.0°F-20.0°C 10% 1.8 mph NW2.9 kmh NW 4.9 mph7.9 kmh 29.54 in1000.3 mb 0.05 in1.3 mm 0.00 in0.0 mm 0.26 in6.6 mm
03:00 AM 50.7°F10.4°C -4.0°F-20.0°C 10% 2.2 mph NW3.5 kmh NW 4.9 mph7.9 kmh 29.54 in1000.3 mb 0.01 in0.3 mm 0.00 in0.0 mm 0.26 in6.6 mm
03:05 AM 50.9°F10.5°C -3.8°F-19.9°C 10% 2.2 mph NNW3.5 kmh NNW 4.9 mph7.9 kmh 29.53 in1000.0 mb 0.00 in0.0 mm 0.00 in0.0 mm 0.26 in6.6 mm
03:10 AM 50.7°F10.4°C -6.2°F-21.2°C 9% 2.2 mph NW3.5 kmh NW 4.5 mph7.2 kmh 29.53 in1000.0 mb 0.00 in0.0 mm 0.00 in0.0 mm 0.26 in6.6 mm
03:15 AM 50.7°F10.4°C -6.2°F-21.2°C 9% 2.7 mph NW4.3 kmh NW 4.9 mph7.9 kmh 29.53 in1000.0 mb 0.00 in0.0 mm 0.00 in0.0 mm 0.26 in6.6 mm
03:20 AM 50.9°F10.5°C -6.0°F-21.1°C 9% 1.3 mph NW2.1 kmh NW 4.9 mph7.9 kmh 29.53 in1000.0 mb 0.00 in0.0 mm 0.00 in0.0 mm 0.26 in6.6 mm
03:25 AM 50.9°F10.5°C -6.0°F-21.1°C 9% 0.4 mph NW0.6 kmh NW 4.9 mph7.9 kmh 29.53 in1000.0 mb 0.00 in0.0 mm 0.00 in0.0 mm 0.26 in6.6 mm
03:30 AM 50.9°F10.5°C -6.0°F-21.1°C 9% 1.3 mph NW2.1 kmh NW 4.9 mph7.9 kmh 29.53 in1000.0 mb 0.00 in0.0 mm 0.00 in0.0 mm 0.26 in6.6 mm
03:35 AM 51.0°F10.6°C -8.4°F-22.4°C 8% 2.2 mph NNW3.5 kmh NNW 10.3 mph16.6 kmh 29.52 in999.7 mb 0.00 in0.0 mm 0.00 in0.0 mm 0.26 in6.6 mm
03:40 AM 51.0°F10.6°C -8.4°F-22.4°C 8% 3.1 mph NW5.0 kmh NW 10.3 mph16.6 kmh 29.53 in1000.0 mb 0.00 in0.0 mm 0.00 in0.0 mm 0.26 in6.6 mm
03:45 AM 51.2°F10.7°C -8.2°F-22.3°C 8% 3.6 mph NW5.8 kmh NW 9.0 mph14.5 kmh 29.53 in1000.0 mb 0.00 in0.0 mm 0.00 in0.0 mm 0.26 in6.6 mm
03:50 AM 51.4°F10.8°C -8.1°F-22.3°C 8% 3.1 mph NW5.0 kmh NW 9.0 mph14.5 kmh 29.53 in1000.0 mb 0.00 in0.0 mm 0.00 in0.0 mm 0.26 in6.6 mm
03:55 AM 51.4°F10.8°C -8.1°F-22.3°C 8% 3.1 mph NNW5.0 kmh NNW 6.7 mph10.8 kmh 29.53 in1000.0 mb 0.00 in0.0 mm 0.00 in0.0 mm 0.26 in6.6 mm
04:00 AM 51.4°F10.8°C -8.1°F-22.3°C 8% 3.6 mph NNW5.8 kmh NNW 7.2 mph11.6 kmh 29.53 in1000.0 mb 0.00 in0.0 mm 0.00 in0.0 mm 0.26 in6.6 mm
04:05 AM 51.4°F10.8°C -5.6°F-20.9°C 9% 3.6 mph NNW5.8 kmh NNW 8.5 mph13.7 kmh 29.53 in1000.0 mb 0.00 in0.0 mm 0.00 in0.0 mm 0.26 in6.6 mm
04:10 AM 51.4°F10.8°C -5.6°F-20.9°C 9% 3.6 mph NNW5.8 kmh NNW 9.0 mph14.5 kmh 29.53 in1000.0 mb 0.00 in0.0 mm 0.00 in0.0 mm 0.26 in6.6 mm
04:15 AM 51.6°F10.9°C -5.5°F-20.8°C 9% 4.0 mph NNW6.4 kmh NNW 17.0 mph27.4 kmh 29.53 in1000.0 mb 0.00 in0.0 mm 0.00 in0.0 mm 0.26 in6.6 mm
04:20 AM 51.8°F11.0°C -5.3°F-20.7°C 9% 4.0 mph NNW6.4 kmh NNW 17.0 mph27.4 kmh 29.53 in1000.0 mb 0.00 in0.0 mm 0.00 in0.0 mm 0.26 in6.6 mm
04:25 AM 51.9°F11.1°C -3.1°F-19.5°C 10% 3.6 mph NW5.8 kmh NW 9.9 mph15.9 kmh 29.53 in1000.0 mb 0.00 in0.0 mm 0.00 in0.0 mm 0.26 in6.6 mm
04:30 AM 51.9°F11.1°C -3.1°F-19.5°C 10% 4.0 mph NW6.4 kmh NW 11.2 mph18.0 kmh 29.53 in1000.0 mb 0.01 in0.3 mm 0.12 in3.0 mm 0.27 in6.9 mm
04:35 AM 52.1°F11.2°C -0.9°F-18.3°C 11% 4.9 mph NW7.9 kmh NW 11.2 mph18.0 kmh 29.53 in1000.0 mb 0.01 in0.3 mm 0.00 in0.0 mm 0.27 in6.9 mm
04:40 AM 52.1°F11.2°C -0.9°F-18.3°C 11% 5.4 mph NW8.7 kmh NW 11.2 mph18.0 kmh 29.52 in999.7 mb 0.01 in0.3 mm 0.00 in0.0 mm 0.27 in6.9 mm
04:45 AM 52.3°F11.3°C 1.1°F-17.2°C 12% 5.4 mph NW8.7 kmh NW 10.8 mph17.4 kmh 29.52 in999.7 mb 0.01 in0.3 mm 0.00 in0.0 mm 0.27 in6.9 mm
04:50 AM 52.3°F11.3°C 2.8°F-16.2°C 13% 5.4 mph NW8.7 kmh NW 9.9 mph15.9 kmh 29.53 in1000.0 mb 0.01 in0.3 mm 0.00 in0.0 mm 0.27 in6.9 mm
04:55 AM 52.3°F11.3°C 4.5°F-15.3°C 14% 4.9 mph NW7.9 kmh NW 11.6 mph18.7 kmh 29.53 in1000.0 mb 0.01 in0.3 mm 0.00 in0.0 mm 0.27 in6.9 mm
05:00 AM 52.5°F11.4°C 4.6°F-15.2°C 14% 4.9 mph NW7.9 kmh NW 11.6 mph18.7 kmh 29.53 in1000.0 mb 0.01 in0.3 mm 0.00 in0.0 mm 0.27 in6.9 mm
05:05 AM 52.5°F11.4°C 4.6°F-15.2°C 14% 4.9 mph NW7.9 kmh NW 9.9 mph15.9 kmh 29.53 in1000.0 mb 0.01 in0.3 mm 0.00 in0.0 mm 0.27 in6.9 mm
05:10 AM 52.7°F11.5°C 6.3°F-14.3°C 15% 4.9 mph NW7.9 kmh NW 9.4 mph15.1 kmh 29.53 in1000.0 mb 0.01 in0.3 mm 0.00 in0.0 mm 0.27 in6.9 mm
05:15 AM 52.8°F11.6°C 7.8°F-13.4°C 16% 5.4 mph NW8.7 kmh NW 10.8 mph17.4 kmh 29.53 in1000.0 mb 0.01 in0.3 mm 0.00 in0.0 mm 0.27 in6.9 mm
05:20 AM 53.0°F11.7°C 9.3°F-12.6°C 17% 5.8 mph NW9.3 kmh NW 12.1 mph19.5 kmh 29.53 in1000.0 mb 0.01 in0.3 mm 0.00 in0.0 mm 0.27 in6.9 mm
05:25 AM 53.2°F11.8°C 10.8°F-11.8°C 18% 6.3 mph NW10.1 kmh NW 14.8 mph23.8 kmh 29.53 in1000.0 mb 0.01 in0.3 mm 0.00 in0.0 mm 0.27 in6.9 mm
05:30 AM 53.2°F11.8°C 12.0°F-11.1°C 19% 7.2 mph NW11.6 kmh NW 17.9 mph28.8 kmh 29.53 in1000.0 mb 0.00 in0.0 mm 0.00 in0.0 mm 0.27 in6.9 mm
05:35 AM 53.4°F11.9°C 13.3°F-10.4°C 20% 7.6 mph NW12.2 kmh NW 17.9 mph28.8 kmh 29.53 in1000.0 mb 0.00 in0.0 mm 0.00 in0.0 mm 0.27 in6.9 mm
05:40 AM 53.4°F11.9°C 14.4°F-9.8°C 21% 6.7 mph NW10.8 kmh NW 17.0 mph27.4 kmh 29.53 in1000.0 mb 0.00 in0.0 mm 0.00 in0.0 mm 0.27 in6.9 mm
05:45 AM 53.4°F11.9°C 14.4°F-9.8°C 21% 6.7 mph NW10.8 kmh NW 25.5 mph41.0 kmh 29.53 in1000.0 mb 0.00 in0.0 mm 0.00 in0.0 mm 0.27 in6.9 mm
05:50 AM 53.2°F11.8°C 14.2°F-9.9°C 21% 6.7 mph NW10.8 kmh NW 25.5 mph41.0 kmh 29.53 in1000.0 mb 0.00 in0.0 mm 0.00 in0.0 mm 0.27 in6.9 mm
05:55 AM 53.2°F11.8°C 14.2°F-9.9°C 21% 6.3 mph NW10.1 kmh NW 14.3 mph23.0 kmh 29.53 in1000.0 mb 0.00 in0.0 mm 0.00 in0.0 mm 0.27 in6.9 mm
06:00 AM 53.0°F11.7°C 14.1°F-9.9°C 21% 6.3 mph NW10.1 kmh NW 13.0 mph20.9 kmh 29.53 in1000.0 mb 0.00 in0.0 mm 0.00 in0.0 mm 0.27 in6.9 mm
06:05 AM 53.0°F11.7°C 14.1°F-9.9°C 21% 6.3 mph NW10.1 kmh NW 13.0 mph20.9 kmh 29.53 in1000.0 mb 0.00 in0.0 mm 0.00 in0.0 mm 0.27 in6.9 mm
06:10 AM 53.0°F11.7°C 14.1°F-9.9°C 21% 5.8 mph NW9.3 kmh NW 12.1 mph19.5 kmh 29.54 in1000.3 mb 0.00 in0.0 mm 0.00 in0.0 mm 0.27 in6.9 mm
06:15 AM 53.2°F11.8°C 14.2°F-9.9°C 21% 5.8 mph NW9.3 kmh NW 13.9 mph22.4 kmh 29.54 in1000.3 mb 0.00 in0.0 mm 0.00 in0.0 mm 0.27 in6.9 mm
06:20 AM 53.2°F11.8°C 14.2°F-9.9°C 21% 5.8 mph NW9.3 kmh NW 13.9 mph22.4 kmh 29.54 in1000.3 mb 0.00 in0.0 mm 0.00 in0.0 mm 0.27 in6.9 mm
06:25 AM 53.2°F11.8°C 14.2°F-9.9°C 21% 5.8 mph NW9.3 kmh NW 12.1 mph19.5 kmh 29.54 in1000.3 mb 0.00 in0.0 mm 0.00 in0.0 mm 0.27 in6.9 mm
06:30 AM 53.2°F11.8°C 15.3°F-9.3°C 22% 4.9 mph NW7.9 kmh NW 11.6 mph18.7 kmh 29.53 in1000.0 mb 0.00 in0.0 mm 0.00 in0.0 mm 0.27 in6.9 mm
06:35 AM 53.0°F11.7°C 15.1°F-9.4°C 22% 4.5 mph NNW7.2 kmh NNW 9.0 mph14.5 kmh 29.54 in1000.3 mb 0.00 in0.0 mm 0.00 in0.0 mm 0.27 in6.9 mm
06:40 AM 52.8°F11.6°C 13.9°F-10.1°C 21% 4.5 mph NNW7.2 kmh NNW 9.9 mph15.9 kmh 29.54 in1000.3 mb 0.00 in0.0 mm 0.00 in0.0 mm 0.27 in6.9 mm
06:45 AM 52.8°F11.6°C 13.9°F-10.1°C 21% 4.5 mph NNW7.2 kmh NNW 9.9 mph15.9 kmh 29.54 in1000.3 mb 0.00 in0.0 mm 0.00 in0.0 mm 0.27 in6.9 mm
06:50 AM 53.0°F11.7°C 14.1°F-9.9°C 21% 4.9 mph NNW7.9 kmh NNW 10.8 mph17.4 kmh 29.54 in1000.3 mb 0.00 in0.0 mm 0.00 in0.0 mm 0.27 in6.9 mm
06:55 AM 53.0°F11.7°C 15.1°F-9.4°C 22% 5.4 mph NW8.7 kmh NW 11.2 mph18.0 kmh 29.54 in1000.3 mb 0.00 in0.0 mm 0.00 in0.0 mm 0.27 in6.9 mm
07:00 AM 53.2°F11.8°C 16.3°F-8.7°C 23% 5.8 mph NW9.3 kmh NW 11.2 mph18.0 kmh 29.54 in1000.3 mb 0.00 in0.0 mm 0.00 in0.0 mm 0.27 in6.9 mm
07:05 AM 53.2°F11.8°C 17.3°F-8.2°C 24% 5.8 mph NW9.3 kmh NW 10.8 mph17.4 kmh 29.54 in1000.3 mb 0.00 in0.0 mm 0.00 in0.0 mm 0.27 in6.9 mm
07:10 AM 53.4°F11.9°C 17.5°F-8.1°C 24% 6.3 mph NW10.1 kmh NW 11.6 mph18.7 kmh 29.54 in1000.3 mb 0.00 in0.0 mm 0.00 in0.0 mm 0.27 in6.9 mm
07:15 AM 53.4°F11.9°C 18.4°F-7.6°C 25% 6.7 mph NW10.8 kmh NW 13.0 mph20.9 kmh 29.54 in1000.3 mb 0.00 in0.0 mm 0.00 in0.0 mm 0.27 in6.9 mm
07:20 AM 53.0°F11.7°C 14.1°F-9.9°C 21% 7.6 mph NW12.2 kmh NW 17.0 mph27.4 kmh 29.54 in1000.3 mb 0.03 in0.8 mm 0.36 in9.1 mm 0.30 in7.6 mm
07:25 AM 53.0°F11.7°C 13.0°F-10.6°C 20% 7.6 mph NW12.2 kmh NW 17.0 mph27.4 kmh 29.54 in1000.3 mb 0.04 in1.0 mm 0.12 in3.0 mm 0.31 in7.9 mm
07:30 AM 52.8°F11.6°C 10.4°F-12.0°C 18% 6.3 mph WNW10.1 kmh WNW 15.2 mph24.5 kmh 29.55 in1000.7 mb 0.04 in1.0 mm 0.00 in0.0 mm 0.31 in7.9 mm
07:35 AM 52.8°F11.6°C 9.1°F-12.7°C 17% 5.4 mph WNW8.7 kmh WNW 22.0 mph35.4 kmh 29.55 in1000.7 mb 0.04 in1.0 mm 0.00 in0.0 mm 0.31 in7.9 mm
07:40 AM 52.7°F11.5°C 7.7°F-13.5°C 16% 4.5 mph NW7.2 kmh NW 22.0 mph35.4 kmh 29.55 in1000.7 mb 0.04 in1.0 mm 0.00 in0.0 mm 0.31 in7.9 mm
07:45 AM 52.7°F11.5°C 7.7°F-13.5°C 16% 4.5 mph NW7.2 kmh NW 9.0 mph14.5 kmh 29.55 in1000.7 mb 0.05 in1.3 mm 0.12 in3.0 mm 0.31 in7.9 mm
07:50 AM 52.5°F11.4°C 8.9°F-12.8°C 17% 4.5 mph NW7.2 kmh NW 10.8 mph17.4 kmh 29.55 in1000.7 mb 0.05 in1.3 mm 0.00 in0.0 mm 0.31 in7.9 mm
07:55 AM 52.5°F11.4°C 8.9°F-12.8°C 17% 4.9 mph NW7.9 kmh NW 10.8 mph17.4 kmh 29.55 in1000.7 mb 0.05 in1.3 mm 0.00 in0.0 mm 0.31 in7.9 mm
08:00 AM 52.5°F11.4°C 10.2°F-12.1°C 18% 5.8 mph NW9.3 kmh NW 13.0 mph20.9 kmh 29.55 in1000.7 mb 0.05 in1.3 mm 0.00 in0.0 mm 0.31 in7.9 mm
08:05 AM 52.5°F11.4°C 10.2°F-12.1°C 18% 6.7 mph NW10.8 kmh NW 13.9 mph22.4 kmh 29.55 in1000.7 mb 0.05 in1.3 mm 0.00 in0.0 mm 0.31 in7.9 mm
08:10 AM 52.5°F11.4°C 10.2°F-12.1°C 18% 6.7 mph NW10.8 kmh NW 13.9 mph22.4 kmh 29.56 in1001.0 mb 0.05 in1.3 mm 0.00 in0.0 mm 0.31 in7.9 mm
08:15 AM 52.7°F11.5°C 11.6°F-11.3°C 19% 5.8 mph NW9.3 kmh NW 13.4 mph21.6 kmh 29.56 in1001.0 mb 0.05 in1.3 mm 0.00 in0.0 mm 0.31 in7.9 mm
08:20 AM 52.7°F11.5°C 10.3°F-12.1°C 18% 5.8 mph NW9.3 kmh NW 13.4 mph21.6 kmh 29.56 in1001.0 mb 0.02 in0.5 mm 0.00 in0.0 mm 0.31 in7.9 mm
08:25 AM 52.5°F11.4°C 11.4°F-11.4°C 19% 6.3 mph NW10.1 kmh NW 13.0 mph20.9 kmh 29.56 in1001.0 mb 0.01 in0.3 mm 0.00 in0.0 mm 0.31 in7.9 mm
08:30 AM 52.5°F11.4°C 12.6°F-10.8°C 20% 5.8 mph NW9.3 kmh NW 14.3 mph23.0 kmh 29.56 in1001.0 mb 0.01 in0.3 mm 0.00 in0.0 mm 0.31 in7.9 mm
08:35 AM 52.3°F11.3°C 11.2°F-11.6°C 19% 5.4 mph NW8.7 kmh NW 14.3 mph23.0 kmh 29.56 in1001.0 mb 0.01 in0.3 mm 0.00 in0.0 mm 0.31 in7.9 mm
08:40 AM 52.3°F11.3°C 10.0°F-12.2°C 18% 5.4 mph NW8.7 kmh NW 11.2 mph18.0 kmh 29.56 in1001.0 mb 0.00 in0.0 mm 0.00 in0.0 mm 0.31 in7.9 mm
08:45 AM 52.1°F11.2°C 8.6°F-13.0°C 17% 5.4 mph NW8.7 kmh NW 14.3 mph23.0 kmh 29.56 in1001.0 mb 0.00 in0.0 mm 0.00 in0.0 mm 0.31 in7.9 mm
08:50 AM 51.9°F11.1°C 8.4°F-13.1°C 17% 6.7 mph NW10.8 kmh NW 17.9 mph28.8 kmh 29.56 in1001.0 mb 0.02 in0.5 mm 0.24 in6.1 mm 0.33 in8.4 mm
08:55 AM 51.6°F10.9°C 8.2°F-13.2°C 17% 7.2 mph NW11.6 kmh NW 17.9 mph28.8 kmh 29.56 in1001.0 mb 0.02 in0.5 mm 0.00 in0.0 mm 0.33 in8.4 mm
09:00 AM 51.0°F10.6°C 11.3°F-11.5°C 20% 6.7 mph NW10.8 kmh NW 20.6 mph33.2 kmh 29.56 in1001.0 mb 0.02 in0.5 mm 0.00 in0.0 mm 0.34 in8.6 mm
09:05 AM 51.0°F10.6°C 12.4°F-10.9°C 21% 6.3 mph NW10.1 kmh NW 20.6 mph33.2 kmh 29.56 in1001.0 mb 0.02 in0.5 mm 0.00 in0.0 mm 0.34 in8.6 mm
09:10 AM 50.9°F10.5°C 13.4°F-10.3°C 22% 6.3 mph NW10.1 kmh NW 15.7 mph25.3 kmh 29.56 in1001.0 mb 0.02 in0.5 mm 0.00 in0.0 mm 0.34 in8.6 mm
09:15 AM 51.2°F10.7°C 16.6°F-8.6°C 25% 4.9 mph NW7.9 kmh NW 14.8 mph23.8 kmh 29.56 in1001.0 mb 0.02 in0.5 mm 0.00 in0.0 mm 0.34 in8.6 mm
09:20 AM 51.6°F10.9°C 16.9°F-8.4°C 25% 3.1 mph W5.0 kmh W 9.4 mph15.1 kmh 29.56 in1001.0 mb 0.02 in0.5 mm 0.00 in0.0 mm 0.34 in8.6 mm
09:25 AM 51.6°F10.9°C 16.9°F-8.4°C 25% 3.1 mph W5.0 kmh W 9.4 mph15.1 kmh 29.56 in1001.0 mb 0.02 in0.5 mm 0.00 in0.0 mm 0.34 in8.6 mm
09:30 AM 52.1°F11.2°C 15.4°F-9.2°C 23% 1.8 mph W2.9 kmh W 4.5 mph7.2 kmh 29.56 in1001.0 mb 0.02 in0.5 mm 0.00 in0.0 mm 0.34 in8.6 mm
09:35 AM 52.8°F11.6°C 15.0°F-9.4°C 22% 3.1 mph NW5.0 kmh NW 18.8 mph30.3 kmh 29.56 in1001.0 mb 0.02 in0.5 mm 0.00 in0.0 mm 0.34 in8.6 mm
09:40 AM 53.0°F11.7°C 14.1°F-9.9°C 21% 5.4 mph NW8.7 kmh NW 18.8 mph30.3 kmh 29.56 in1001.0 mb 0.02 in0.5 mm 0.00 in0.0 mm 0.34 in8.6 mm
09:45 AM 53.4°F11.9°C 15.5°F-9.2°C 22% 4.9 mph NW7.9 kmh NW 11.6 mph18.7 kmh 29.56 in1001.0 mb 0.02 in0.5 mm 0.00 in0.0 mm 0.34 in8.6 mm
09:50 AM 53.4°F11.9°C 14.4°F-9.8°C 21% 4.5 mph NW7.2 kmh NW 11.6 mph18.7 kmh 29.56 in1001.0 mb 0.01 in0.3 mm 0.00 in0.0 mm 0.34 in8.6 mm
09:55 AM 53.2°F11.8°C 15.3°F-9.3°C 22% 4.0 mph NW6.4 kmh NW 9.4 mph15.1 kmh 29.56 in1001.0 mb 0.01 in0.3 mm 0.00 in0.0 mm 0.34 in8.6 mm
10:00 AM 52.8°F11.6°C 12.8°F-10.7°C 20% 4.5 mph NW7.2 kmh NW 11.6 mph18.7 kmh 29.56 in1001.0 mb 0.03 in0.8 mm 0.02 in0.5 mm 0.37 in9.4 mm
10:05 AM 52.3°F11.3°C 10.0°F-12.2°C 18% 6.7 mph NW10.8 kmh NW 17.0 mph27.4 kmh 29.56 in1001.0 mb 0.08 in2.0 mm 0.60 in15.2 mm 0.42 in10.7 mm
10:10 AM 52.3°F11.3°C 11.2°F-11.6°C 19% 7.2 mph NW11.6 kmh NW 17.0 mph27.4 kmh 29.56 in1001.0 mb 0.09 in2.3 mm 0.12 in3.0 mm 0.43 in10.9 mm
10:15 AM 52.8°F11.6°C 9.1°F-12.7°C 17% 5.8 mph WNW9.3 kmh WNW 16.6 mph26.7 kmh 29.56 in1001.0 mb 0.10 in2.5 mm 0.12 in3.0 mm 0.44 in11.2 mm
10:20 AM 53.4°F11.9°C 6.9°F-13.9°C 15% 4.5 mph NW7.2 kmh NW 8.5 mph13.7 kmh 29.56 in1001.0 mb 0.10 in2.5 mm 0.00 in0.0 mm 0.44 in11.2 mm
10:25 AM 53.4°F11.9°C 6.9°F-13.9°C 15% 3.6 mph NW5.8 kmh NW 7.2 mph11.6 kmh 29.56 in1001.0 mb 0.10 in2.5 mm 0.00 in0.0 mm 0.44 in11.2 mm
10:30 AM 53.6°F12.0°C 8.4°F-13.1°C 16% 2.7 mph WNW4.3 kmh WNW 8.5 mph13.7 kmh 29.56 in1001.0 mb 0.10 in2.5 mm 0.00 in0.0 mm 0.44 in11.2 mm
10:35 AM 53.7°F12.1°C 7.1°F-13.8°C 15% 2.2 mph WNW3.5 kmh WNW 8.5 mph13.7 kmh 29.56 in1001.0 mb 0.10 in2.5 mm 0.00 in0.0 mm 0.44 in11.2 mm
10:40 AM 53.4°F11.9°C 6.9°F-13.9°C 15% 2.7 mph NW4.3 kmh NW 7.6 mph12.2 kmh 29.56 in1001.0 mb 0.11 in2.8 mm 0.12 in3.0 mm 0.45 in11.4 mm
10:45 AM 53.4°F11.9°C 5.3°F-14.8°C 14% 3.1 mph NW5.0 kmh NW 8.5 mph13.7 kmh 29.56 in1001.0 mb 0.11 in2.8 mm 0.00 in0.0 mm 0.45 in11.4 mm
10:50 AM 53.9°F12.2°C 5.7°F-14.6°C 14% 3.1 mph NW5.0 kmh NW 8.5 mph13.7 kmh 29.56 in1001.0 mb 0.11 in2.8 mm 0.00 in0.0 mm 0.45 in11.4 mm
10:55 AM 54.1°F12.3°C 5.9°F-14.5°C 14% 2.7 mph NW4.3 kmh NW 12.5 mph20.1 kmh 29.55 in1000.7 mb 0.11 in2.8 mm 0.00 in0.0 mm 0.45 in11.4 mm
11:00 AM 53.9°F12.2°C 8.7°F-12.9°C 16% 3.6 mph W5.8 kmh W 13.0 mph20.9 kmh 29.56 in1001.0 mb 0.08 in2.0 mm 0.00 in0.0 mm 0.45 in11.4 mm
11:05 AM 52.1°F11.2°C 23.1°F-4.9°C 32% 5.8 mph WSW9.3 kmh WSW 17.9 mph28.8 kmh 29.56 in1001.0 mb 0.05 in1.3 mm 0.00 in0.0 mm 0.46 in11.7 mm
11:10 AM 51.4°F10.8°C 21.0°F-6.1°C 30% 6.7 mph W10.8 kmh W 17.9 mph28.8 kmh 29.57 in1001.4 mb 0.06 in1.5 mm 0.12 in3.0 mm 0.49 in12.4 mm
11:15 AM 51.0°F10.6°C 19.8°F-6.8°C 29% 5.8 mph W9.3 kmh W 13.9 mph22.4 kmh 29.56 in1001.0 mb 0.06 in1.5 mm 0.00 in0.0 mm 0.50 in12.7 mm
11:20 AM 51.2°F10.7°C 16.6°F-8.6°C 25% 4.9 mph WSW7.9 kmh WSW 13.0 mph20.9 kmh 29.57 in1001.4 mb 0.06 in1.5 mm 0.00 in0.0 mm 0.50 in12.7 mm
11:25 AM 51.8°F11.0°C 16.1°F-8.8°C 24% 3.1 mph W5.0 kmh W 9.0 mph14.5 kmh 29.56 in1001.0 mb 0.06 in1.5 mm 0.00 in0.0 mm 0.50 in12.7 mm
11:30 AM 51.9°F11.1°C 16.2°F-8.8°C 24% 2.7 mph W4.3 kmh W 8.1 mph13.0 kmh 29.56 in1001.0 mb 0.07 in1.8 mm 0.12 in3.0 mm 0.51 in13.0 mm
11:35 AM 52.5°F11.4°C 17.7°F-7.9°C 25% 3.1 mph W5.0 kmh W 8.5 mph13.7 kmh 29.56 in1001.0 mb 0.07 in1.8 mm 0.00 in0.0 mm 0.51 in13.0 mm
11:40 AM 53.2°F11.8°C 17.3°F-8.2°C 24% 3.1 mph W5.0 kmh W 8.5 mph13.7 kmh 29.55 in1000.7 mb 0.06 in1.5 mm 0.00 in0.0 mm 0.51 in13.0 mm
11:45 AM 54.1°F12.3°C 18.1°F-7.7°C 24% 3.6 mph WNW5.8 kmh WNW 8.5 mph13.7 kmh 29.55 in1000.7 mb 0.06 in1.5 mm 0.00 in0.0 mm 0.51 in13.0 mm
11:50 AM 54.5°F12.5°C 26.7°F-2.9°C 34% 5.4 mph NW8.7 kmh NW 13.0 mph20.9 kmh 29.55 in1000.7 mb 0.06 in1.5 mm 0.00 in0.0 mm 0.51 in13.0 mm
11:55 AM 55.2°F12.9°C 30.7°F-0.7°C 39% 6.3 mph WNW10.1 kmh WNW 19.7 mph31.7 kmh 29.55 in1000.7 mb 0.06 in1.5 mm 0.00 in0.0 mm 0.51 in13.0 mm
12:00 PM 55.2°F12.9°C 30.7°F-0.7°C 39% 6.7 mph WNW10.8 kmh WNW 19.7 mph31.7 kmh 29.55 in1000.7 mb 0.06 in1.5 mm 0.00 in0.0 mm 0.51 in13.0 mm
12:05 PM 55.2°F12.9°C 30.7°F-0.7°C 39% 7.6 mph WNW12.2 kmh WNW 15.7 mph25.3 kmh 29.55 in1000.7 mb 0.05 in1.3 mm 0.00 in0.0 mm 0.51 in13.0 mm
12:10 PM 56.8°F13.8°C 31.5°F-0.3°C 38% 8.1 mph WNW13.0 kmh WNW 16.6 mph26.7 kmh 29.54 in1000.3 mb 0.02 in0.5 mm 0.00 in0.0 mm 0.51 in13.0 mm
12:15 PM 57.9°F14.4°C 31.8°F-0.1°C 37% 7.6 mph WNW12.2 kmh WNW 16.6 mph26.7 kmh 29.54 in1000.3 mb 0.02 in0.5 mm 0.00 in0.0 mm 0.51 in13.0 mm
12:20 PM 58.1°F14.5°C 33.3°F0.7°C 39% 6.7 mph WNW10.8 kmh WNW 14.3 mph23.0 kmh 29.54 in1000.3 mb 0.01 in0.3 mm 0.00 in0.0 mm 0.51 in13.0 mm
12:25 PM 58.6°F14.8°C 35.0°F1.7°C 41% 6.7 mph WNW10.8 kmh WNW 14.3 mph23.0 kmh 29.53 in1000.0 mb 0.01 in0.3 mm 0.00 in0.0 mm 0.51 in13.0 mm
12:30 PM 56.8°F13.8°C 37.3°F2.9°C 48% 8.1 mph WNW13.0 kmh WNW 18.8 mph30.3 kmh 29.53 in1000.0 mb 0.00 in0.0 mm 0.00 in0.0 mm 0.51 in13.0 mm
12:35 PM 56.3°F13.5°C 36.9°F2.7°C 48% 8.1 mph WNW13.0 kmh WNW 18.8 mph30.3 kmh 29.53 in1000.0 mb 0.00 in0.0 mm 0.00 in0.0 mm 0.51 in13.0 mm
12:40 PM 56.8°F13.8°C 37.9°F3.3°C 49% 7.2 mph W11.6 kmh W 18.4 mph29.6 kmh 29.53 in1000.0 mb 0.00 in0.0 mm 0.00 in0.0 mm 0.51 in13.0 mm
12:45 PM 58.4°F14.7°C 42.8°F6.0°C 56% 7.2 mph WNW11.6 kmh WNW 19.3 mph31.1 kmh 29.53 in1000.0 mb 0.00 in0.0 mm 0.00 in0.0 mm 0.51 in13.0 mm
12:50 PM 57.7°F14.3°C 43.9°F6.6°C 60% 9.4 mph WNW15.1 kmh WNW 26.4 mph42.5 kmh 29.53 in1000.0 mb 0.00 in0.0 mm 0.00 in0.0 mm 0.51 in13.0 mm
12:55 PM 57.5°F14.2°C 42.4°F5.8°C 57% 10.3 mph WNW16.6 kmh WNW 26.4 mph42.5 kmh 29.53 in1000.0 mb 0.00 in0.0 mm 0.00 in0.0 mm 0.51 in13.0 mm
01:00 PM 55.7°F13.2°C 38.9°F3.8°C 53% 9.0 mph WNW14.5 kmh WNW 25.5 mph41.0 kmh 29.53 in1000.0 mb 0.00 in0.0 mm 0.00 in0.0 mm 0.51 in13.0 mm
01:05 PM 55.5°F13.1°C 37.2°F2.9°C 50% 8.1 mph WNW13.0 kmh WNW 25.5 mph41.0 kmh 29.54 in1000.3 mb 0.00 in0.0 mm 0.00 in0.0 mm 0.51 in13.0 mm
01:10 PM 55.9°F13.3°C 37.0°F2.8°C 49% 6.7 mph WNW10.8 kmh WNW 18.8 mph30.3 kmh 29.54 in1000.3 mb 0.00 in0.0 mm 0.00 in0.0 mm 0.51 in13.0 mm
01:15 PM 56.4°F13.6°C 37.5°F3.1°C 49% 6.7 mph WNW10.8 kmh WNW 18.8 mph30.3 kmh 29.54 in1000.3 mb 0.00 in0.0 mm 0.00 in0.0 mm 0.51 in13.0 mm
01:20 PM 58.1°F14.5°C 41.6°F5.3°C 54% 7.6 mph WNW12.2 kmh WNW 19.3 mph31.1 kmh 29.54 in1000.3 mb 0.00 in0.0 mm 0.00 in0.0 mm 0.51 in13.0 mm
01:25 PM 57.2°F14.0°C 42.1°F5.6°C 57% 7.6 mph WNW12.2 kmh WNW 19.3 mph31.1 kmh 29.54 in1000.3 mb 0.00 in0.0 mm 0.00 in0.0 mm 0.51 in13.0 mm
01:30 PM 57.0°F13.9°C 41.5°F5.3°C 56% 6.3 mph WNW10.1 kmh WNW 17.0 mph27.4 kmh 29.54 in1000.3 mb 0.00 in0.0 mm 0.00 in0.0 mm 0.51 in13.0 mm
01:35 PM 56.6°F13.7°C 41.6°F5.3°C 57% 5.8 mph W9.3 kmh W 17.0 mph27.4 kmh 29.54 in1000.3 mb 0.00 in0.0 mm 0.00 in0.0 mm 0.51 in13.0 mm
01:40 PM 56.4°F13.6°C 41.8°F5.4°C 58% 6.3 mph W10.1 kmh W 17.0 mph27.4 kmh 29.54 in1000.3 mb 0.00 in0.0 mm 0.00 in0.0 mm 0.51 in13.0 mm
01:45 PM 56.8°F13.8°C 42.7°F5.9°C 59% 6.3 mph W10.1 kmh W 15.7 mph25.3 kmh 29.54 in1000.3 mb 0.00 in0.0 mm 0.00 in0.0 mm 0.51 in13.0 mm
01:50 PM 56.6°F13.7°C 42.9°F6.1°C 60% 7.2 mph W11.6 kmh W 16.6 mph26.7 kmh 29.54 in1000.3 mb 0.00 in0.0 mm 0.00 in0.0 mm 0.51 in13.0 mm
01:55 PM 56.4°F13.6°C 41.8°F5.4°C 58% 7.6 mph W12.2 kmh W 19.7 mph31.7 kmh 29.54 in1000.3 mb 0.00 in0.0 mm 0.00 in0.0 mm 0.51 in13.0 mm
02:00 PM 57.2°F14.0°C 43.9°F6.6°C 61% 7.2 mph W11.6 kmh W 19.7 mph31.7 kmh 29.54 in1000.3 mb 0.00 in0.0 mm 0.00 in0.0 mm 0.51 in13.0 mm
02:05 PM 57.9°F14.4°C 43.7°F6.5°C 59% 7.2 mph W11.6 kmh W 20.2 mph32.5 kmh 29.53 in1000.0 mb 0.00 in0.0 mm 0.00 in0.0 mm 0.51 in13.0 mm
02:10 PM 57.9°F14.4°C 44.1°F6.7°C 60% 7.6 mph WNW12.2 kmh WNW 20.2 mph32.5 kmh 29.53 in1000.0 mb 0.00 in0.0 mm 0.00 in0.0 mm 0.51 in13.0 mm
02:15 PM 58.2°F14.6°C 44.4°F6.9°C 60% 7.6 mph WNW12.2 kmh WNW 16.6 mph26.7 kmh 29.53 in1000.0 mb 0.00 in0.0 mm 0.00 in0.0 mm 0.51 in13.0 mm
02:20 PM 58.8°F14.9°C 44.5°F6.9°C 59% 9.0 mph WNW14.5 kmh WNW 19.3 mph31.1 kmh 29.53 in1000.0 mb 0.00 in0.0 mm 0.00 in0.0 mm 0.51 in13.0 mm
02:25 PM 56.6°F13.7°C 42.5°F5.8°C 59% 9.4 mph WNW15.1 kmh WNW 19.3 mph31.1 kmh 29.53 in1000.0 mb 0.00 in0.0 mm 0.00 in0.0 mm 0.51 in13.0 mm
02:30 PM 55.9°F13.3°C 39.5°F4.2°C 54% 9.0 mph W14.5 kmh W 18.8 mph30.3 kmh 29.53 in1000.0 mb 0.00 in0.0 mm 0.00 in0.0 mm 0.51 in13.0 mm
02:35 PM 55.5°F13.1°C 36.7°F2.6°C 49% 8.1 mph WNW13.0 kmh WNW 27.8 mph44.7 kmh 29.53 in1000.0 mb 0.00 in0.0 mm 0.00 in0.0 mm 0.51 in13.0 mm
02:40 PM 55.7°F13.2°C 39.3°F4.1°C 54% 7.2 mph W11.6 kmh W 27.8 mph44.7 kmh 29.53 in1000.0 mb 0.00 in0.0 mm 0.00 in0.0 mm 0.51 in13.0 mm
02:45 PM 56.3°F13.5°C 41.3°F5.2°C 57% 6.7 mph W10.8 kmh W 17.5 mph28.2 kmh 29.53 in1000.0 mb 0.00 in0.0 mm 0.00 in0.0 mm 0.51 in13.0 mm
02:50 PM 57.2°F14.0°C 43.9°F6.6°C 61% 8.5 mph WNW13.7 kmh WNW 21.5 mph34.6 kmh 29.52 in999.7 mb 0.00 in0.0 mm 0.00 in0.0 mm 0.51 in13.0 mm
02:55 PM 57.2°F14.0°C 43.9°F6.6°C 61% 9.9 mph WNW15.9 kmh WNW 21.5 mph34.6 kmh 29.52 in999.7 mb 0.00 in0.0 mm 0.00 in0.0 mm 0.51 in13.0 mm
03:00 PM 56.6°F13.7°C 42.9°F6.1°C 60% 9.4 mph WNW15.1 kmh WNW 19.7 mph31.7 kmh 29.52 in999.7 mb 0.00 in0.0 mm 0.00 in0.0 mm 0.51 in13.0 mm
03:05 PM 56.8°F13.8°C 43.5°F6.4°C 61% 7.6 mph W12.2 kmh W 19.7 mph31.7 kmh 29.53 in1000.0 mb 0.00 in0.0 mm 0.00 in0.0 mm 0.51 in13.0 mm
03:10 PM 57.0°F13.9°C 44.1°F6.7°C 62% 6.7 mph W10.8 kmh W 17.0 mph27.4 kmh 29.53 in1000.0 mb 0.00 in0.0 mm 0.00 in0.0 mm 0.51 in13.0 mm
03:15 PM 57.2°F14.0°C 44.8°F7.1°C 63% 7.6 mph W12.2 kmh W 21.1 mph34.0 kmh 29.53 in1000.0 mb 0.00 in0.0 mm 0.00 in0.0 mm 0.51 in13.0 mm
03:20 PM 56.8°F13.8°C 44.0°F6.7°C 62% 8.1 mph WNW13.0 kmh WNW 21.1 mph34.0 kmh 29.53 in1000.0 mb 0.00 in0.0 mm 0.00 in0.0 mm 0.51 in13.0 mm
03:25 PM 56.8°F13.8°C 44.0°F6.7°C 62% 8.5 mph WNW13.7 kmh WNW 20.6 mph33.2 kmh 29.53 in1000.0 mb 0.00 in0.0 mm 0.00 in0.0 mm 0.51 in13.0 mm
03:30 PM 56.8°F13.8°C 43.5°F6.4°C 61% 8.5 mph W13.7 kmh W 20.6 mph33.2 kmh 29.53 in1000.0 mb 0.00 in0.0 mm 0.00 in0.0 mm 0.51 in13.0 mm
03:35 PM 56.4°F13.6°C 42.7°F5.9°C 60% 7.2 mph WNW11.6 kmh WNW 22.4 mph36.0 kmh 29.54 in1000.3 mb 0.00 in0.0 mm 0.00 in0.0 mm 0.51 in13.0 mm
03:40 PM 56.8°F13.8°C 43.5°F6.4°C 61% 7.2 mph WNW11.6 kmh WNW 22.4 mph36.0 kmh 29.54 in1000.3 mb 0.00 in0.0 mm 0.00 in0.0 mm 0.51 in13.0 mm
03:45 PM 57.0°F13.9°C 44.1°F6.7°C 62% 8.1 mph W13.0 kmh W 19.3 mph31.1 kmh 29.54 in1000.3 mb 0.00 in0.0 mm 0.00 in0.0 mm 0.51 in13.0 mm
03:50 PM 57.0°F13.9°C 44.1°F6.7°C 62% 8.1 mph WNW13.0 kmh WNW 18.8 mph30.3 kmh 29.53 in1000.0 mb 0.00 in0.0 mm 0.00 in0.0 mm 0.51 in13.0 mm
03:55 PM 56.8°F13.8°C 44.0°F6.7°C 62% 8.5 mph WNW13.7 kmh WNW 20.6 mph33.2 kmh 29.54 in1000.3 mb 0.00 in0.0 mm 0.00 in0.0 mm 0.51 in13.0 mm
04:00 PM 56.3°F13.5°C 43.1°F6.2°C 61% 7.6 mph WNW12.2 kmh WNW 20.6 mph33.2 kmh 29.54 in1000.3 mb 0.00 in0.0 mm 0.00 in0.0 mm 0.51 in13.0 mm
04:05 PM 56.6°F13.7°C 42.9°F6.1°C 60% 7.2 mph WNW11.6 kmh WNW 19.3 mph31.1 kmh 29.54 in1000.3 mb 0.00 in0.0 mm 0.00 in0.0 mm 0.51 in13.0 mm
04:10 PM 56.8°F13.8°C 42.7°F5.9°C 59% 7.2 mph WNW11.6 kmh WNW 19.3 mph31.1 kmh 29.53 in1000.0 mb 0.00 in0.0 mm 0.00 in0.0 mm 0.51 in13.0 mm
04:15 PM 56.1°F13.4°C 41.1°F5.1°C 57% 7.2 mph NW11.6 kmh NW 14.3 mph23.0 kmh 29.54 in1000.3 mb 0.00 in0.0 mm 0.00 in0.0 mm 0.51 in13.0 mm
04:20 PM 55.9°F13.3°C 42.7°F5.9°C 61% 7.6 mph NW12.2 kmh NW 14.8 mph23.8 kmh 29.54 in1000.3 mb 0.00 in0.0 mm 0.00 in0.0 mm 0.51 in13.0 mm
04:25 PM 55.9°F13.3°C 42.7°F5.9°C 61% 7.6 mph WNW12.2 kmh WNW 16.1 mph25.9 kmh 29.53 in1000.0 mb 0.00 in0.0 mm 0.00 in0.0 mm 0.51 in13.0 mm
04:30 PM 55.9°F13.3°C 42.2°F5.7°C 60% 6.7 mph WNW10.8 kmh WNW 16.1 mph25.9 kmh 29.54 in1000.3 mb 0.00 in0.0 mm 0.00 in0.0 mm 0.51 in13.0 mm
04:35 PM 55.2°F12.9°C 41.6°F5.3°C 60% 6.7 mph WNW10.8 kmh WNW 19.7 mph31.7 kmh 29.54 in1000.3 mb 0.00 in0.0 mm 0.00 in0.0 mm 0.51 in13.0 mm
04:40 PM 55.0°F12.8°C 40.1°F4.5°C 57% 7.6 mph WNW12.2 kmh WNW 19.7 mph31.7 kmh 29.53 in1000.0 mb 0.00 in0.0 mm 0.00 in0.0 mm 0.51 in13.0 mm
04:45 PM 55.2°F12.9°C 39.3°F4.1°C 55% 7.6 mph WNW12.2 kmh WNW 18.4 mph29.6 kmh 29.54 in1000.3 mb 0.00 in0.0 mm 0.00 in0.0 mm 0.51 in13.0 mm
04:50 PM 55.2°F12.9°C 38.9°F3.8°C 54% 6.7 mph WNW10.8 kmh WNW 18.4 mph29.6 kmh 29.54 in1000.3 mb 0.00 in0.0 mm 0.00 in0.0 mm 0.51 in13.0 mm
04:55 PM 54.8°F12.7°C 38.5°F3.6°C 54% 7.2 mph WNW11.6 kmh WNW 17.9 mph28.8 kmh 29.54 in1000.3 mb 0.00 in0.0 mm 0.00 in0.0 mm 0.51 in13.0 mm
05:00 PM 54.3°F12.4°C 38.0°F3.3°C 54% 8.1 mph NW13.0 kmh NW 17.9 mph28.8 kmh 29.54 in1000.3 mb 0.00 in0.0 mm 0.00 in0.0 mm 0.51 in13.0 mm
05:05 PM 53.9°F12.2°C 37.7°F3.2°C 54% 7.6 mph NW12.2 kmh NW 15.7 mph25.3 kmh 29.54 in1000.3 mb 0.00 in0.0 mm 0.00 in0.0 mm 0.51 in13.0 mm
05:10 PM 53.4°F11.9°C 37.7°F3.2°C 55% 8.1 mph WNW13.0 kmh WNW 17.0 mph27.4 kmh 29.54 in1000.3 mb 0.00 in0.0 mm 0.00 in0.0 mm 0.51 in13.0 mm
05:15 PM 53.4°F11.9°C 37.2°F2.9°C 54% 8.5 mph WNW13.7 kmh WNW 17.5 mph28.2 kmh 29.55 in1000.7 mb 0.00 in0.0 mm 0.00 in0.0 mm 0.51 in13.0 mm
05:20 PM 52.8°F11.6°C 36.2°F2.3°C 53% 7.2 mph WNW11.6 kmh WNW 17.5 mph28.2 kmh 29.55 in1000.7 mb 0.00 in0.0 mm 0.00 in0.0 mm 0.51 in13.0 mm
05:25 PM 52.8°F11.6°C 36.2°F2.3°C 53% 6.7 mph NW10.8 kmh NW 15.2 mph24.5 kmh 29.55 in1000.7 mb 0.00 in0.0 mm 0.00 in0.0 mm 0.51 in13.0 mm
05:30 PM 52.8°F11.6°C 36.2°F2.3°C 53% 5.8 mph NW9.3 kmh NW 15.2 mph24.5 kmh 29.55 in1000.7 mb 0.00 in0.0 mm 0.00 in0.0 mm 0.51 in13.0 mm
05:35 PM 52.1°F11.2°C 30.9°F-0.6°C 44% 5.4 mph NW8.7 kmh NW 12.1 mph19.5 kmh 29.55 in1000.7 mb 0.00 in0.0 mm 0.00 in0.0 mm 0.51 in13.0 mm
05:40 PM 52.1°F11.2°C 30.9°F-0.6°C 44% 4.9 mph NW7.9 kmh NW 9.4 mph15.1 kmh 29.56 in1001.0 mb 0.00 in0.0 mm 0.00 in0.0 mm 0.51 in13.0 mm
05:45 PM 51.9°F11.1°C 28.3°F-2.1°C 40% 4.5 mph NW7.2 kmh NW 8.5 mph13.7 kmh 29.56 in1001.0 mb 0.00 in0.0 mm 0.00 in0.0 mm 0.51 in13.0 mm
05:50 PM 51.8°F11.0°C 27.6°F-2.4°C 39% 4.0 mph NW6.4 kmh NW 9.4 mph15.1 kmh 29.56 in1001.0 mb 0.00 in0.0 mm 0.00 in0.0 mm 0.51 in13.0 mm
05:55 PM 51.6°F10.9°C 26.2°F-3.2°C 37% 4.0 mph NW6.4 kmh NW 9.4 mph15.1 kmh 29.56 in1001.0 mb 0.00 in0.0 mm 0.00 in0.0 mm 0.51 in13.0 mm
06:00 PM 51.4°F10.8°C 25.3°F-3.7°C 36% 3.1 mph NW5.0 kmh NW 9.0 mph14.5 kmh 29.57 in1001.4 mb 0.00 in0.0 mm 0.00 in0.0 mm 0.51 in13.0 mm
06:05 PM 51.2°F10.7°C 24.5°F-4.2°C 35% 2.7 mph NW4.3 kmh NW 7.2 mph11.6 kmh 29.57 in1001.4 mb 0.00 in0.0 mm 0.00 in0.0 mm 0.51 in13.0 mm
06:10 PM 51.4°F10.8°C 24.7°F-4.1°C 35% 2.7 mph NW4.3 kmh NW 7.2 mph11.6 kmh 29.57 in1001.4 mb 0.00 in0.0 mm 0.00 in0.0 mm 0.51 in13.0 mm
06:15 PM 51.0°F10.6°C 23.6°F-4.7°C 34% 2.7 mph NW4.3 kmh NW 5.8 mph9.3 kmh 29.57 in1001.4 mb 0.00 in0.0 mm 0.00 in0.0 mm 0.51 in13.0 mm
06:20 PM 50.9°F10.5°C 22.8°F-5.1°C 33% 3.1 mph WNW5.0 kmh WNW 9.4 mph15.1 kmh 29.57 in1001.4 mb 0.00 in0.0 mm 0.00 in0.0 mm 0.51 in13.0 mm
06:25 PM 50.9°F10.5°C 22.1°F-5.5°C 32% 3.6 mph NW5.8 kmh NW 9.4 mph15.1 kmh 29.57 in1001.4 mb 0.00 in0.0 mm 0.00 in0.0 mm 0.51 in13.0 mm
06:30 PM 50.7°F10.4°C 21.2°F-6.0°C 31% 3.6 mph NW5.8 kmh NW 7.6 mph12.2 kmh 29.57 in1001.4 mb 0.00 in0.0 mm 0.00 in0.0 mm 0.51 in13.0 mm
06:35 PM 50.7°F10.4°C 21.2°F-6.0°C 31% 3.6 mph NW5.8 kmh NW 7.6 mph12.2 kmh 29.57 in1001.4 mb 0.00 in0.0 mm 0.00 in0.0 mm 0.51 in13.0 mm
06:40 PM 50.5°F10.3°C 20.2°F-6.6°C 30% 3.6 mph NW5.8 kmh NW 7.6 mph12.2 kmh 29.57 in1001.4 mb 0.00 in0.0 mm 0.00 in0.0 mm 0.51 in13.0 mm
06:45 PM 50.5°F10.3°C 20.2°F-6.6°C 30% 3.6 mph NW5.8 kmh NW 6.7 mph10.8 kmh 29.57 in1001.4 mb 0.00 in0.0 mm 0.00 in0.0 mm 0.51 in13.0 mm
06:50 PM 50.3°F10.2°C 20.0°F-6.7°C 30% 3.1 mph NW5.0 kmh NW 6.3 mph10.1 kmh 29.57 in1001.4 mb 0.00 in0.0 mm 0.00 in0.0 mm 0.51 in13.0 mm
06:55 PM 50.1°F10.1°C 19.1°F-7.2°C 29% 2.7 mph NW4.3 kmh NW 6.3 mph10.1 kmh 29.57 in1001.4 mb 0.00 in0.0 mm 0.00 in0.0 mm 0.51 in13.0 mm
07:00 PM 50.1°F10.1°C 19.1°F-7.2°C 29% 2.2 mph NW3.5 kmh NW 6.3 mph10.1 kmh 29.58 in1001.7 mb 0.00 in0.0 mm 0.00 in0.0 mm 0.51 in13.0 mm
07:05 PM 50.0°F10.0°C 19.0°F-7.2°C 29% 2.2 mph NW3.5 kmh NW 4.5 mph7.2 kmh 29.57 in1001.4 mb 0.00 in0.0 mm 0.00 in0.0 mm 0.51 in13.0 mm
07:10 PM 49.6°F9.8°C 18.6°F-7.4°C 29% 1.8 mph NW2.9 kmh NW 4.5 mph7.2 kmh 29.57 in1001.4 mb 0.00 in0.0 mm 0.00 in0.0 mm 0.51 in13.0 mm
07:15 PM 49.6°F9.8°C 17.8°F-7.9°C 28% 1.3 mph NW2.1 kmh NW 4.5 mph7.2 kmh 29.58 in1001.7 mb 0.00 in0.0 mm 0.00 in0.0 mm 0.51 in13.0 mm
07:20 PM 49.4°F9.7°C 17.6°F-8.0°C 28% 1.3 mph NW2.1 kmh NW 3.1 mph5.0 kmh 29.58 in1001.7 mb 0.00 in0.0 mm 0.00 in0.0 mm 0.51 in13.0 mm
07:25 PM 49.2°F9.6°C 16.6°F-8.6°C 27% 1.3 mph NW2.1 kmh NW 2.7 mph4.3 kmh 29.58 in1001.7 mb 0.00 in0.0 mm 0.00 in0.0 mm 0.51 in13.0 mm
07:30 PM 49.2°F9.6°C 15.8°F-9.0°C 26% 1.8 mph NW2.9 kmh NW 3.1 mph5.0 kmh 29.58 in1001.7 mb 0.00 in0.0 mm 0.00 in0.0 mm 0.51 in13.0 mm
07:35 PM 49.2°F9.6°C 15.8°F-9.0°C 26% 1.3 mph NW2.1 kmh NW 3.1 mph5.0 kmh 29.58 in1001.7 mb 0.00 in0.0 mm 0.00 in0.0 mm 0.51 in13.0 mm
07:40 PM 49.1°F9.5°C 14.8°F-9.6°C 25% 1.3 mph NW2.1 kmh NW 4.5 mph7.2 kmh 29.58 in1001.7 mb 0.00 in0.0 mm 0.00 in0.0 mm 0.51 in13.0 mm
07:45 PM 49.1°F9.5°C 13.8°F-10.1°C 24% 2.2 mph NNW3.5 kmh NNW 5.4 mph8.7 kmh 29.58 in1001.7 mb 0.00 in0.0 mm 0.00 in0.0 mm 0.51 in13.0 mm
07:50 PM 49.1°F9.5°C 12.9°F-10.6°C 23% 2.7 mph NW4.3 kmh NW 5.4 mph8.7 kmh 29.58 in1001.7 mb 0.00 in0.0 mm 0.00 in0.0 mm 0.51 in13.0 mm
07:55 PM 49.2°F9.6°C 11.9°F-11.2°C 22% 2.7 mph NW4.3 kmh NW 6.7 mph10.8 kmh 29.58 in1001.7 mb 0.00 in0.0 mm 0.00 in0.0 mm 0.51 in13.0 mm
08:00 PM 49.4°F9.7°C 11.1°F-11.6°C 21% 3.1 mph NNW5.0 kmh NNW 6.7 mph10.8 kmh 29.58 in1001.7 mb 0.00 in0.0 mm 0.00 in0.0 mm 0.51 in13.0 mm
08:05 PM 49.6°F9.8°C 11.2°F-11.6°C 21% 3.6 mph NNW5.8 kmh NNW 9.4 mph15.1 kmh 29.58 in1001.7 mb 0.00 in0.0 mm 0.00 in0.0 mm 0.51 in13.0 mm
08:10 PM 49.6°F9.8°C 12.3°F-10.9°C 22% 4.0 mph NW6.4 kmh NW 9.4 mph15.1 kmh 29.58 in1001.7 mb 0.00 in0.0 mm 0.00 in0.0 mm 0.51 in13.0 mm
08:15 PM 49.4°F9.7°C 13.1°F-10.5°C 23% 4.5 mph NW7.2 kmh NW 8.5 mph13.7 kmh 29.58 in1001.7 mb 0.00 in0.0 mm 0.00 in0.0 mm 0.51 in13.0 mm
08:20 PM 49.2°F9.6°C 13.0°F-10.6°C 23% 4.5 mph NNW7.2 kmh NNW 8.5 mph13.7 kmh 29.58 in1001.7 mb 0.00 in0.0 mm 0.00 in0.0 mm 0.51 in13.0 mm
08:25 PM 49.2°F9.6°C 13.9°F-10.1°C 24% 4.5 mph NW7.2 kmh NW 8.5 mph13.7 kmh 29.58 in1001.7 mb 0.00 in0.0 mm 0.00 in0.0 mm 0.51 in13.0 mm
08:30 PM 49.2°F9.6°C 13.9°F-10.1°C 24% 4.5 mph NW7.2 kmh NW 12.5 mph20.1 kmh 29.58 in1001.7 mb 0.00 in0.0 mm 0.00 in0.0 mm 0.51 in13.0 mm
08:35 PM 49.2°F9.6°C 13.9°F-10.1°C 24% 4.0 mph NNW6.4 kmh NNW 12.5 mph20.1 kmh 29.58 in1001.7 mb 0.00 in0.0 mm 0.00 in0.0 mm 0.51 in13.0 mm
08:40 PM 49.2°F9.6°C 13.9°F-10.1°C 24% 4.0 mph NW6.4 kmh NW 9.9 mph15.9 kmh 29.58 in1001.7 mb 0.00 in0.0 mm 0.00 in0.0 mm 0.51 in13.0 mm
08:45 PM 49.6°F9.8°C 15.2°F-9.3°C 25% 4.5 mph NNW7.2 kmh NNW 9.9 mph15.9 kmh 29.58 in1001.7 mb 0.00 in0.0 mm 0.00 in0.0 mm 0.51 in13.0 mm
08:50 PM 49.6°F9.8°C 16.1°F-8.8°C 26% 4.5 mph NNW7.2 kmh NNW 9.9 mph15.9 kmh 29.58 in1001.7 mb 0.00 in0.0 mm 0.00 in0.0 mm 0.51 in13.0 mm
08:55 PM 49.6°F9.8°C 17.8°F-7.9°C 28% 4.0 mph NW6.4 kmh NW 9.9 mph15.9 kmh 29.58 in1001.7 mb 0.00 in0.0 mm 0.00 in0.0 mm 0.51 in13.0 mm
09:00 PM 49.6°F9.8°C 18.6°F-7.4°C 29% 4.0 mph NNW6.4 kmh NNW 9.9 mph15.9 kmh 29.59 in1002.0 mb 0.00 in0.0 mm 0.00 in0.0 mm 0.51 in13.0 mm
09:05 PM 49.6°F9.8°C 18.6°F-7.4°C 29% 4.5 mph NNW7.2 kmh NNW 12.1 mph19.5 kmh 29.59 in1002.0 mb 0.00 in0.0 mm 0.00 in0.0 mm 0.51 in13.0 mm
09:10 PM 49.6°F9.8°C 19.4°F-7.0°C 30% 4.5 mph NNW7.2 kmh NNW 12.1 mph19.5 kmh 29.59 in1002.0 mb 0.00 in0.0 mm 0.00 in0.0 mm 0.51 in13.0 mm
09:15 PM 49.6°F9.8°C 19.4°F-7.0°C 30% 4.0 mph NW6.4 kmh NW 7.6 mph12.2 kmh 29.59 in1002.0 mb 0.00 in0.0 mm 0.00 in0.0 mm 0.51 in13.0 mm
09:20 PM 49.6°F9.8°C 20.2°F-6.6°C 31% 4.0 mph NNW6.4 kmh NNW 8.5 mph13.7 kmh 29.59 in1002.0 mb 0.00 in0.0 mm 0.00 in0.0 mm 0.51 in13.0 mm
09:25 PM 49.6°F9.8°C 20.2°F-6.6°C 31% 4.5 mph NNW7.2 kmh NNW 10.3 mph16.6 kmh 29.59 in1002.0 mb 0.00 in0.0 mm 0.00 in0.0 mm 0.51 in13.0 mm
09:30 PM 49.6°F9.8°C 20.9°F-6.2°C 32% 4.5 mph NW7.2 kmh NW 10.3 mph16.6 kmh 29.59 in1002.0 mb 0.00 in0.0 mm 0.00 in0.0 mm 0.51 in13.0 mm
09:35 PM 49.6°F9.8°C 20.9°F-6.2°C 32% 4.0 mph NW6.4 kmh NW 9.4 mph15.1 kmh 29.59 in1002.0 mb 0.00 in0.0 mm 0.00 in0.0 mm 0.51 in13.0 mm
09:40 PM 49.6°F9.8°C 20.9°F-6.2°C 32% 4.0 mph NW6.4 kmh NW 9.0 mph14.5 kmh 29.59 in1002.0 mb 0.00 in0.0 mm 0.00 in0.0 mm 0.51 in13.0 mm
09:45 PM 49.6°F9.8°C 20.9°F-6.2°C 32% 4.0 mph NW6.4 kmh NW 8.5 mph13.7 kmh 29.59 in1002.0 mb 0.00 in0.0 mm 0.00 in0.0 mm 0.51 in13.0 mm
09:50 PM 49.6°F9.8°C 21.7°F-5.7°C 33% 4.5 mph NW7.2 kmh NW 8.5 mph13.7 kmh 29.59 in1002.0 mb 0.00 in0.0 mm 0.00 in0.0 mm 0.51 in13.0 mm
09:55 PM 49.6°F9.8°C 20.9°F-6.2°C 32% 4.5 mph NNW7.2 kmh NNW 24.6 mph39.6 kmh 29.59 in1002.0 mb 0.00 in0.0 mm 0.00 in0.0 mm 0.51 in13.0 mm
10:00 PM 49.6°F9.8°C 20.9°F-6.2°C 32% 4.0 mph NNW6.4 kmh NNW 24.6 mph39.6 kmh 29.59 in1002.0 mb 0.00 in0.0 mm 0.00 in0.0 mm 0.51 in13.0 mm
10:05 PM 49.6°F9.8°C 20.9°F-6.2°C 32% 4.0 mph NNW6.4 kmh NNW 7.2 mph11.6 kmh 29.59 in1002.0 mb 0.00 in0.0 mm 0.00 in0.0 mm 0.51 in13.0 mm
10:10 PM 49.4°F9.7°C 20.0°F-6.7°C 31% 4.0 mph NNW6.4 kmh NNW 9.0 mph14.5 kmh 29.59 in1002.0 mb 0.00 in0.0 mm 0.00 in0.0 mm 0.51 in13.0 mm
10:15 PM 49.4°F9.7°C 20.8°F-6.2°C 32% 4.5 mph NW7.2 kmh NW 9.0 mph14.5 kmh 29.59 in1002.0 mb 0.00 in0.0 mm 0.00 in0.0 mm 0.51 in13.0 mm
10:20 PM 49.6°F9.8°C 20.9°F-6.2°C 32% 4.9 mph NW7.9 kmh NW 10.8 mph17.4 kmh 29.59 in1002.0 mb 0.00 in0.0 mm 0.00 in0.0 mm 0.51 in13.0 mm
10:25 PM 49.8°F9.9°C 21.8°F-5.7°C 33% 5.8 mph NW9.3 kmh NW 17.0 mph27.4 kmh 29.59 in1002.0 mb 0.00 in0.0 mm 0.00 in0.0 mm 0.51 in13.0 mm
10:30 PM 49.8°F9.9°C 23.2°F-4.9°C 35% 7.2 mph NW11.6 kmh NW 17.0 mph27.4 kmh 29.59 in1002.0 mb 0.00 in0.0 mm 0.00 in0.0 mm 0.51 in13.0 mm
10:35 PM 49.8°F9.9°C 23.9°F-4.5°C 36% 6.7 mph NW10.8 kmh NW 15.2 mph24.5 kmh 29.59 in1002.0 mb 0.00 in0.0 mm 0.00 in0.0 mm 0.51 in13.0 mm
10:40 PM 49.8°F9.9°C 24.6°F-4.1°C 37% 5.8 mph NW9.3 kmh NW 15.2 mph24.5 kmh 29.59 in1002.0 mb 0.00 in0.0 mm 0.00 in0.0 mm 0.51 in13.0 mm
10:45 PM 49.8°F9.9°C 24.6°F-4.1°C 37% 6.7 mph NW10.8 kmh NW 16.1 mph25.9 kmh 29.59 in1002.0 mb 0.00 in0.0 mm 0.00 in0.0 mm 0.51 in13.0 mm
10:50 PM 49.6°F9.8°C 23.7°F-4.6°C 36% 7.6 mph NW12.2 kmh NW 16.6 mph26.7 kmh 29.59 in1002.0 mb 0.00 in0.0 mm 0.00 in0.0 mm 0.51 in13.0 mm
10:55 PM 49.6°F9.8°C 22.4°F-5.3°C 34% 7.2 mph NW11.6 kmh NW 16.6 mph26.7 kmh 29.59 in1002.0 mb 0.00 in0.0 mm 0.00 in0.0 mm 0.51 in13.0 mm
11:00 PM 49.6°F9.8°C 21.7°F-5.7°C 33% 6.7 mph NW10.8 kmh NW 19.7 mph31.7 kmh 29.59 in1002.0 mb 0.00 in0.0 mm 0.00 in0.0 mm 0.51 in13.0 mm
11:05 PM 49.6°F9.8°C 21.7°F-5.7°C 33% 6.3 mph NW10.1 kmh NW 19.7 mph31.7 kmh 29.59 in1002.0 mb 0.00 in0.0 mm 0.00 in0.0 mm 0.51 in13.0 mm
11:10 PM 49.6°F9.8°C 21.7°F-5.7°C 33% 5.4 mph NW8.7 kmh NW 14.8 mph23.8 kmh 29.59 in1002.0 mb 0.00 in0.0 mm 0.00 in0.0 mm 0.51 in13.0 mm
11:15 PM 48.7°F9.3°C 19.4°F-7.0°C 31% 4.5 mph WNW7.2 kmh WNW 9.0 mph14.5 kmh 29.60 in1002.4 mb 0.00 in0.0 mm 0.00 in0.0 mm 0.51 in13.0 mm
11:20 PM 48.7°F9.3°C 19.4°F-7.0°C 31% 4.0 mph NW6.4 kmh NW 7.6 mph12.2 kmh 29.60 in1002.4 mb 0.00 in0.0 mm 0.00 in0.0 mm 0.51 in13.0 mm
11:25 PM 48.7°F9.3°C 19.4°F-7.0°C 31% 4.9 mph NW7.9 kmh NW 9.4 mph15.1 kmh 29.60 in1002.4 mb 0.00 in0.0 mm 0.00 in0.0 mm 0.51 in13.0 mm
11:30 PM 48.7°F9.3°C 19.4°F-7.0°C 31% 5.4 mph NW8.7 kmh NW 12.5 mph20.1 kmh 29.60 in1002.4 mb 0.00 in0.0 mm 0.00 in0.0 mm 0.51 in13.0 mm
11:35 PM 48.7°F9.3°C 20.2°F-6.6°C 32% 5.8 mph NW9.3 kmh NW 17.9 mph28.8 kmh 29.60 in1002.4 mb 0.00 in0.0 mm 0.00 in0.0 mm 0.51 in13.0 mm
11:40 PM 48.7°F9.3°C 20.2°F-6.6°C 32% 6.7 mph NW10.8 kmh NW 17.9 mph28.8 kmh 29.61 in1002.7 mb 0.00 in0.0 mm 0.00 in0.0 mm 0.51 in13.0 mm
11:45 PM 48.7°F9.3°C 18.6°F-7.4°C 30% 7.2 mph NW11.6 kmh NW 16.1 mph25.9 kmh 29.60 in1002.4 mb 0.00 in0.0 mm 0.00 in0.0 mm 0.51 in13.0 mm
11:50 PM 48.7°F9.3°C 18.6°F-7.4°C 30% 8.1 mph NW13.0 kmh NW 16.1 mph25.9 kmh 29.60 in1002.4 mb 0.00 in0.0 mm 0.00 in0.0 mm 0.51 in13.0 mm
11:55 PM 48.5°F9.2°C 18.5°F-7.5°C 30% 7.2 mph NW11.6 kmh NW 13.4 mph21.6 kmh 29.61 in1002.7 mb 0.00 in0.0 mm 0.00 in0.0 mm 0.51 in13.0 mm